createdAt,value
2023-03-04T00:04:33.344Z,9.35
2023-03-04T00:10:37.080Z,11.35
2023-03-04T00:16:40.647Z,6.03
2023-03-04T00:22:45.442Z,15.48
2023-03-04T00:28:48.810Z,8.02
2023-03-04T00:34:52.336Z,9.35
2023-03-04T00:40:57.090Z,6.22
2023-03-04T00:47:00.520Z,13.52
2023-03-04T00:53:03.905Z,6.53
2023-03-04T00:59:08.840Z,10.93
2023-03-04T01:05:12.395Z,9.90
2023-03-04T01:11:15.775Z,7.30
2023-03-04T01:17:20.548Z,10.55
2023-03-04T01:23:23.939Z,11.60
2023-03-04T01:29:29.989Z,12.95
2023-03-04T01:35:35.042Z,9.52
2023-03-04T01:41:38.522Z,7.93
2023-03-04T01:47:44.163Z,9.95
2023-03-04T01:53:53.217Z,9.18
2023-03-04T02:00:13.408Z,7.65
2023-03-04T02:06:16.857Z,8.07
2023-03-04T02:12:21.788Z,9.43
2023-03-04T02:18:26.016Z,5.55
2023-03-04T02:24:31.658Z,6.38
2023-03-04T02:30:36.531Z,9.25
2023-03-04T02:36:40.276Z,7.28
2023-03-04T02:42:45.109Z,9.93
2023-03-04T02:48:49.954Z,11.63
2023-03-04T02:54:53.337Z,9.95
2023-03-04T03:00:56.914Z,9.70
2023-03-04T03:07:01.764Z,3.95
2023-03-04T03:13:05.235Z,7.05
2023-03-04T03:19:08.756Z,8.32
2023-03-04T03:25:14.236Z,9.75
2023-03-04T03:31:17.874Z,4.88
2023-03-04T03:37:21.461Z,6.28
2023-03-04T03:43:26.265Z,6.50
2023-03-04T03:49:29.612Z,10.40
2023-03-04T03:55:33.183Z,6.97
2023-03-04T04:01:38.066Z,7.13
2023-03-04T04:07:42.376Z,8.57
2023-03-04T04:13:45.963Z,5.85
2023-03-04T04:19:50.780Z,7.18
2023-03-04T04:25:56.519Z,5.50
2023-03-04T04:32:00.141Z,7.03
2023-03-04T04:38:04.966Z,6.68
2023-03-04T04:44:08.668Z,10.02
2023-03-04T04:50:12.753Z,5.82
2023-03-04T04:56:18.157Z,5.35
2023-03-04T05:02:21.904Z,6.85
2023-03-04T05:08:25.273Z,7.68
2023-03-04T05:14:30.044Z,8.05
2023-03-04T05:20:33.420Z,7.22
2023-03-04T05:26:36.843Z,7.25
2023-03-04T05:32:41.658Z,7.72
2023-03-04T05:38:45.106Z,7.95
2023-03-04T05:44:48.532Z,5.90
2023-03-04T05:50:56.371Z,8.30
2023-03-04T05:56:59.734Z,7.93
2023-03-04T06:03:03.407Z,7.72
2023-03-04T06:09:08.358Z,10.63
2023-03-04T06:15:12.087Z,7.85
2023-03-04T06:21:15.816Z,7.15
2023-03-04T06:27:20.742Z,8.25
2023-03-04T06:33:24.128Z,6.72
2023-03-04T06:39:27.801Z,6.20
2023-03-04T06:45:32.590Z,3.47
2023-03-04T06:51:36.037Z,7.20
2023-03-04T06:57:39.863Z,5.78
2023-03-04T07:03:45.028Z,7.80
2023-03-04T07:09:48.439Z,5.95
2023-03-04T07:15:51.926Z,12.50
2023-03-04T07:21:56.666Z,6.30
2023-03-04T07:28:00.247Z,5.55
2023-03-04T07:34:04.437Z,9.52
2023-03-04T07:40:10.492Z,12.07
2023-03-04T07:46:14.010Z,7.78
2023-03-04T07:52:17.452Z,7.00
2023-03-04T07:58:22.263Z,14.32
2023-03-04T08:04:25.664Z,7.38
2023-03-04T08:10:29.321Z,10.50
2023-03-04T08:16:34.303Z,8.32
2023-03-04T08:22:37.708Z,7.68
2023-03-04T08:28:41.188Z,8.73
2023-03-04T08:34:46.087Z,9.40
2023-03-04T08:40:54.518Z,9.35
2023-03-04T08:46:58.322Z,14.05
2023-03-04T08:53:03.625Z,6.72
2023-03-04T08:59:07.233Z,8.18
2023-03-04T09:05:10.969Z,8.27
2023-03-04T09:11:15.915Z,6.38
2023-03-04T09:17:19.511Z,5.03
2023-03-04T09:23:23.480Z,6.03
2023-03-04T09:29:28.395Z,6.22
2023-03-04T09:35:31.912Z,2.95
2023-03-04T09:41:38.528Z,3.20
2023-03-04T09:47:44.140Z,6.97
2023-03-04T09:53:51.613Z,4.45
2023-03-04T10:00:01.732Z,5.45
2023-03-04T10:06:07.988Z,7.93
2023-03-04T10:12:15.497Z,6.28
2023-03-04T10:18:22.260Z,3.35
2023-03-04T10:24:29.201Z,5.75
2023-03-04T10:30:37.186Z,4.97
2023-03-04T10:36:45.927Z,6.95
2023-03-04T10:42:52.361Z,4.53
2023-03-04T10:48:56.206Z,3.10
2023-03-04T10:55:00.524Z,4.60
2023-03-04T11:01:06.953Z,3.03
2023-03-04T11:07:11.344Z,3.47
2023-03-04T11:13:18.390Z,2.70
2023-03-04T11:19:24.598Z,3.03
2023-03-04T11:25:29.795Z,2.53
2023-03-04T11:31:35.522Z,1.65
2023-03-04T11:37:42.629Z,1.45
2023-03-04T11:43:47.303Z,4.50
2023-03-04T11:50:05.751Z,0.68
2023-03-04T11:56:29.009Z,0.95
2023-03-04T12:02:36.319Z,2.45
2023-03-04T12:08:54.578Z,1.25
2023-03-04T12:15:04.347Z,2.72
2023-03-04T12:21:17.155Z,3.30
2023-03-04T12:27:26.195Z,0.50
2023-03-04T12:33:35.698Z,0.68
2023-03-04T12:39:40.888Z,2.42
2023-03-04T12:45:49.057Z,1.52
2023-03-04T12:51:59.086Z,1.50
2023-03-04T12:58:03.373Z,1.85
2023-03-04T13:04:11.423Z,2.40
2023-03-04T13:10:18.234Z,0.70
2023-03-04T13:16:33.286Z,1.95
2023-03-04T13:22:53.427Z,0.60
2023-03-04T13:29:11.398Z,1.40
2023-03-04T13:35:29.659Z,0.93
2023-03-04T13:41:33.996Z,0.70
2023-03-04T13:47:50.992Z,1.75
2023-03-04T13:53:55.800Z,0.95
2023-03-04T14:00:00.133Z,1.08
2023-03-04T14:06:18.243Z,2.30
2023-03-04T14:12:21.780Z,1.23
2023-03-04T14:18:25.853Z,1.63
2023-03-04T14:24:31.593Z,0.63
2023-03-04T14:30:42.739Z,0.95
2023-03-04T14:36:47.016Z,1.55
2023-03-04T14:42:53.412Z,1.95
2023-03-04T14:48:57.729Z,1.52
2023-03-04T14:55:05.894Z,3.75
2023-03-04T15:01:16.355Z,2.05
2023-03-04T15:07:21.115Z,3.83
2023-03-04T15:13:38.846Z,1.88
2023-03-04T15:19:43.683Z,2.13
2023-03-04T15:25:47.216Z,1.80
2023-03-04T15:31:51.869Z,2.30
2023-03-04T15:37:57.799Z,3.25
2023-03-04T15:44:01.203Z,2.50
2023-03-04T15:50:04.739Z,3.40
2023-03-04T15:56:11.064Z,1.80
2023-03-04T16:02:17.496Z,2.17
2023-03-04T16:08:22.072Z,1.85
2023-03-04T16:14:27.415Z,2.30
2023-03-04T16:20:32.447Z,3.85
2023-03-04T16:26:36.695Z,2.92
2023-03-04T16:32:41.653Z,3.28
2023-03-04T16:38:45.140Z,1.48
2023-03-04T16:44:48.572Z,2.15
2023-03-04T16:50:53.586Z,2.53
2023-03-04T16:56:57.050Z,3.60
2023-03-04T17:03:01.328Z,2.65
2023-03-04T17:09:06.604Z,3.75
2023-03-04T17:15:11.687Z,3.65
2023-03-04T17:21:16.176Z,3.42
2023-03-04T17:27:20.987Z,2.13
2023-03-04T17:33:24.631Z,1.98
2023-03-04T17:39:28.103Z,2.28
2023-03-04T17:45:33.078Z,3.28
2023-03-04T17:51:37.822Z,2.63
2023-03-04T17:57:41.610Z,3.45
2023-03-04T18:03:46.564Z,6.68
2023-03-04T18:09:50.262Z,5.43
2023-03-04T18:15:54.039Z,3.53
2023-03-04T18:21:58.845Z,1.10
2023-03-04T18:28:03.056Z,1.00
2023-03-04T18:34:06.563Z,1.50
2023-03-04T18:40:12.348Z,1.30
2023-03-04T18:46:24.402Z,2.35
2023-03-04T18:52:27.860Z,3.17
2023-03-04T18:58:35.024Z,2.03
2023-03-04T19:04:38.800Z,2.10
2023-03-04T19:10:42.548Z,2.65
2023-03-04T19:16:47.392Z,4.35
2023-03-04T19:22:50.980Z,3.30
2023-03-04T19:28:54.450Z,4.28
2023-03-04T19:34:59.214Z,3.60
2023-03-04T19:41:09.308Z,5.05
2023-03-04T19:47:12.806Z,3.08
2023-03-04T19:53:18.812Z,2.30
2023-03-04T19:59:22.828Z,2.75
2023-03-04T20:05:26.229Z,3.42
2023-03-04T20:11:31.495Z,3.10
2023-03-04T20:17:34.936Z,3.35
2023-03-04T20:23:38.477Z,5.80
2023-03-04T20:29:44.341Z,3.25
2023-03-04T20:35:48.075Z,5.95
2023-03-04T20:41:51.513Z,5.10
2023-03-04T20:47:56.534Z,5.28
2023-03-04T20:54:00.337Z,5.22
2023-03-04T21:00:03.873Z,4.75
2023-03-04T21:06:09.778Z,3.65
2023-03-04T21:12:13.507Z,4.38
2023-03-04T21:18:16.978Z,4.07
2023-03-04T21:24:22.503Z,5.03
2023-03-04T21:30:26.026Z,5.80
2023-03-04T21:36:29.462Z,3.88
2023-03-04T21:42:34.594Z,4.57
2023-03-04T21:48:38.534Z,7.35
2023-03-04T21:54:42.061Z,8.57
2023-03-04T22:00:46.971Z,6.38
2023-03-04T22:06:50.511Z,6.35
2023-03-04T22:12:54.075Z,5.13
2023-03-04T22:18:59.448Z,5.38
2023-03-04T22:25:03.335Z,6.32
2023-03-04T22:31:14.844Z,6.35
2023-03-04T22:37:19.644Z,6.70
2023-03-04T22:43:23.132Z,6.88
2023-03-04T22:49:26.651Z,5.93
2023-03-04T22:55:31.420Z,8.82
2023-03-04T23:01:34.888Z,8.32
2023-03-04T23:07:38.719Z,6.35
2023-03-04T23:13:43.948Z,4.72
2023-03-04T23:19:47.447Z,7.28
2023-03-04T23:25:52.357Z,6.70
2023-03-04T23:31:57.510Z,9.63
2023-03-04T23:38:01.230Z,7.75
2023-03-04T23:44:05.443Z,5.07
2023-03-04T23:50:13.952Z,5.35
2023-03-04T23:56:18.003Z,5.47
